Time;durP1;ratioP1;P1;durP2;ratioP2;P2;SDS_P1;SDS_P2;PMS_P1;PMS_P2;Temp;Humidity;BMP_temperature;BMP_pressure;BME280_temperature;BME280_humidity;BME280_pressure;Samples;Min_cycle;Max_cycle;Signal;HPM_P1;HPM_P2
2022/01/12 00:01:11;;;;;;;12.93;8.55;;;;;;;-3.58;86.04;101257.38;4977031;28;20208;-73
2022/01/12 00:03:36;;;;;;;14.98;9.18;;;;;;;-3.59;85.83;101260.81;4978461;28;20302;-73
2022/01/12 00:06:03;;;;;;;11.53;8.30;;;;;;;-3.60;85.61;101262.47;4961133;28;20248;-72
2022/01/12 00:08:31;;;;;;;10.85;7.45;;;;;;;-3.59;85.77;101271.09;4980175;28;20381;-72
2022/01/12 00:10:58;;;;;;;12.38;7.38;;;;;;;-3.59;85.67;101268.50;4977403;28;20231;-73
2022/01/12 00:13:24;;;;;;;11.80;8.48;;;;;;;-3.58;85.80;101263.38;4982178;28;20219;-73
2022/01/12 00:15:51;;;;;;;11.90;8.70;;;;;;;-3.56;85.54;101258.28;4979197;28;20200;-73
2022/01/12 00:18:16;;;;;;;13.75;9.52;;;;;;;-3.54;85.42;101266.88;4981637;28;20204;-73
2022/01/12 00:20:42;;;;;;;12.27;9.00;;;;;;;-3.58;85.14;101265.09;4982808;28;20298;-73
2022/01/12 00:23:08;;;;;;;16.10;10.97;;;;;;;-3.66;85.16;101275.22;4979531;28;20223;-72
2022/01/12 00:25:55;;;;;;;11.13;8.18;;;;;;;-3.71;85.27;101268.25;4981962;28;21066;-72
2022/01/12 00:33:48;;;;;;;13.48;8.65;;;;;;;-3.86;85.56;101272.22;4978955;28;20215;-73
2022/01/12 00:36:15;;;;;;;12.57;9.10;;;;;;;-3.90;85.56;101272.13;4975738;28;20286;-73
2022/01/12 00:38:40;;;;;;;11.70;7.73;;;;;;;-3.96;85.59;101280.53;4959613;28;20660;-73
2022/01/12 00:41:05;;;;;;;11.37;7.27;;;;;;;-3.97;85.71;101286.50;4978679;28;20219;-73
2022/01/12 00:43:34;;;;;;;12.13;8.33;;;;;;;-4.00;85.92;101299.25;4958985;28;20235;-73
2022/01/12 00:45:59;;;;;;;9.63;7.55;;;;;;;-4.01;85.88;101293.25;4968551;28;20228;-72
2022/01/12 00:48:25;;;;;;;13.50;8.70;;;;;;;-4.02;86.06;101298.38;4984590;28;20206;-73
2022/01/12 00:50:50;;;;;;;11.47;7.60;;;;;;;-4.02;86.33;101295.81;4969113;28;20366;-72
2022/01/12 00:53:16;;;;;;;11.07;7.37;;;;;;;-4.01;86.04;101297.53;4966053;28;20271;-73
2022/01/12 00:55:41;;;;;;;10.00;7.47;;;;;;;-3.99;86.15;101297.59;4979875;28;20478;-73
2022/01/12 00:58:07;;;;;;;11.03;7.40;;;;;;;-3.98;86.06;101297.59;4969341;28;20679;-73
2022/01/12 01:00:33;;;;;;;13.80;7.33;;;;;;;-3.99;86.16;101301.00;4960309;28;20203;-73
2022/01/12 01:02:59;;;;;;;13.90;7.13;;;;;;;-4.00;86.04;101304.41;4973771;28;20236;-73
2022/01/12 01:05:26;;;;;;;18.48;8.50;;;;;;;-4.00;85.81;101314.66;5005767;23;20234;-79
2022/01/12 01:07:52;;;;;;;13.48;8.50;;;;;;;-4.03;85.78;101306.91;4924988;29;20517;-79
2022/01/12 01:13:04;;;;;;;9.57;7.75;;;;;;;-4.04;86.31;101320.56;4937869;28;20210;-80
2022/01/12 01:15:55;;;;;;;9.77;7.90;;;;;;;-4.05;86.38;101317.16;4970057;28;20322;-79
2022/01/12 01:26:41;;;;;;;8.60;6.60;;;;;;;-4.12;86.00;101327.22;4950845;28;20219;-79
2022/01/12 01:29:07;;;;;;;12.40;8.07;;;;;;;-4.12;86.18;101327.22;4954419;28;20211;-79
2022/01/12 01:31:34;;;;;;;14.00;9.00;;;;;;;-4.12;86.18;101320.38;4966050;28;20467;-79
2022/01/12 01:34:09;;;;;;;15.00;8.48;;;;;;;-4.12;86.06;101327.22;4959277;28;20338;-79
2022/01/12 01:36:36;;;;;;;14.85;8.20;;;;;;;-4.11;86.19;101334.06;4951252;28;20204;-80
2022/01/12 01:39:03;;;;;;;12.20;8.98;;;;;;;-4.10;86.13;101325.56;4947533;28;20210;-79
2022/01/12 01:41:30;;;;;;;13.18;6.90;;;;;;;-4.10;86.12;101321.28;4942827;28;20268;-79
2022/01/12 01:44:34;;;;;;;12.73;7.37;;;;;;;-4.10;85.74;101323.88;4938419;28;20316;-79
2022/01/12 01:55:09;;;;;;;10.55;7.82;;;;;;;-4.17;85.95;101332.22;4948437;28;20228;-79
2022/01/12 01:57:35;;;;;;;6.90;5.38;;;;;;;-4.17;85.92;101329.66;4960933;28;20212;-80
2022/01/12 02:00:05;;;;;;;11.85;5.53;;;;;;;-4.19;85.69;101327.91;4941390;28;20208;-80
2022/01/12 02:02:38;;;;;;;13.60;9.50;;;;;;;-4.12;86.05;101322.09;4949961;28;20568;-80
2022/01/12 02:05:05;;;;;;;11.52;7.70;;;;;;;-4.16;85.77;101321.13;4950200;28;20243;-80
2022/01/12 02:07:34;;;;;;;35.60;7.97;;;;;;;-4.21;86.08;101317.63;4956982;28;20201;-80
2022/01/12 02:10:01;;;;;;;14.77;9.10;;;;;;;-4.26;86.26;101326.91;4945701;28;20208;-80
2022/01/12 02:12:56;;;;;;;7.97;7.18;;;;;;;-4.30;86.31;101328.50;4950089;28;20696;-79
2022/01/12 02:15:25;;;;;;;8.27;6.85;;;;;;;-4.31;86.02;101320.78;4948804;28;20555;-79
2022/01/12 02:18:20;;;;;;;14.88;6.47;;;;;;;-4.29;86.33;101325.13;4957046;28;20204;-79
2022/01/12 02:35:35;;;;;;;9.82;7.63;;;;;;;-4.28;85.76;101337.09;4953905;28;20573;-80
2022/01/12 02:40:27;;;;;;;13.23;8.63;;;;;;;-4.39;85.74;101348.81;4942342;28;20374;-79
2022/01/12 02:43:42;;;;;;;13.13;8.50;;;;;;;-4.41;85.68;101339.34;4939470;28;20205;-79
2022/01/12 02:53:45;;;;;;;10.98;8.77;;;;;;;-4.45;86.03;101338.41;4943862;28;20717;-79
2022/01/12 02:56:18;;;;;;;9.27;6.18;;;;;;;-4.45;86.18;101334.13;4946308;28;20644;-79
2022/01/12 02:58:45;;;;;;;7.25;6.38;;;;;;;-4.48;85.94;101320.38;4941457;28;20209;-79
2022/01/12 03:03:42;;;;;;;9.73;6.05;;;;;;;-4.55;85.57;101310.78;4954077;28;20263;-79
2022/01/12 03:06:09;;;;;;;8.82;6.30;;;;;;;-4.57;85.68;101312.44;4950370;28;20229;-79
2022/01/12 03:08:37;;;;;;;7.70;5.32;;;;;;;-4.60;85.58;101313.22;4952001;28;20260;-80
2022/01/12 03:11:08;;;;;;;7.45;5.60;;;;;;;-4.61;85.39;101313.19;4936178;28;20304;-80
2022/01/12 03:13:35;;;;;;;11.15;6.65;;;;;;;-4.62;85.90;101325.13;4948001;28;20217;-80
2022/01/12 03:16:08;;;;;;;8.40;6.60;;;;;;;-4.67;85.34;101327.59;4942614;28;20360;-80
2022/01/12 03:18:33;;;;;;;9.18;5.80;;;;;;;-4.73;85.34;101335.09;4959927;28;20319;-80
2022/01/12 03:20:59;;;;;;;6.03;5.07;;;;;;;-4.73;85.60;101329.97;4944443;28;20200;-80
2022/01/12 03:23:24;;;;;;;8.27;5.50;;;;;;;-4.77;85.58;101330.72;4961719;28;20216;-80
2022/01/12 03:25:50;;;;;;;8.87;6.23;;;;;;;-4.82;85.50;101332.31;4959295;28;20221;-80
2022/01/12 03:28:16;;;;;;;5.80;5.20;;;;;;;-4.83;85.40;101333.16;4950773;28;21027;-80
2022/01/12 03:30:52;;;;;;;8.13;5.97;;;;;;;-4.81;85.66;101321.22;4950334;28;20728;-80
2022/01/12 03:33:35;;;;;;;9.18;6.13;;;;;;;-4.79;85.07;101316.13;4959772;28;20474;-80
2022/01/12 03:38:44;;;;;;;9.65;6.70;;;;;;;-4.76;85.47;101331.59;4958611;28;20217;-80
2022/01/12 03:41:12;;;;;;;11.35;7.95;;;;;;;-4.78;85.31;101339.25;4962218;28;20299;-80
2022/01/12 03:43:37;;;;;;;8.68;6.78;;;;;;;-4.79;85.14;101345.19;4951111;28;20655;-79
2022/01/12 03:46:04;;;;;;;8.13;6.13;;;;;;;-4.78;85.33;101351.19;4953366;28;20221;-80
2022/01/12 03:48:29;;;;;;;8.90;5.57;;;;;;;-4.77;85.22;101352.94;4939810;28;20232;-80
2022/01/12 03:50:56;;;;;;;10.50;6.77;;;;;;;-4.78;85.28;101364.91;4961166;28;20296;-80
2022/01/12 03:53:22;;;;;;;7.15;6.05;;;;;;;-4.77;84.81;101355.50;4951743;28;20208;-80
2022/01/12 03:55:48;;;;;;;12.27;7.00;;;;;;;-4.77;85.18;101351.25;4955792;28;20193;-80
2022/01/12 03:58:14;;;;;;;8.33;5.50;;;;;;;-4.74;85.06;101353.88;4952031;28;20550;-80
2022/01/12 04:00:39;;;;;;;8.40;5.73;;;;;;;-4.72;85.09;101361.63;4956806;28;20491;-80
2022/01/12 04:03:08;;;;;;;6.78;5.95;;;;;;;-4.74;84.39;101366.69;4950522;28;20209;-80
2022/01/12 04:08:21;;;;;;;9.05;6.30;;;;;;;-4.92;84.07;101369.63;4954900;28;20208;-80
2022/01/12 04:10:53;;;;;;;6.82;6.22;;;;;;;-5.02;83.96;101366.75;4966508;28;20213;-80
2022/01/12 04:13:22;;;;;;;8.45;6.10;;;;;;;-5.11;84.52;101358.00;4950147;28;20205;-81
2022/01/12 04:15:55;;;;;;;9.30;6.32;;;;;;;-5.16;84.66;101371.50;4969238;28;20573;-79
2022/01/12 04:18:21;;;;;;;7.82;6.43;;;;;;;-5.19;84.67;101371.41;4937013;28;20746;-79
2022/01/12 04:20:49;;;;;;;12.18;7.20;;;;;;;-5.18;84.34;101368.91;4953344;28;20523;-80
2022/01/12 04:23:17;;;;;;;13.88;7.53;;;;;;;-5.15;84.88;101353.63;4961586;28;20205;-80
2022/01/12 04:25:52;;;;;;;10.38;6.72;;;;;;;-5.14;84.61;101351.91;4956500;28;20241;-80
2022/01/12 04:28:20;;;;;;;7.20;6.05;;;;;;;-5.15;84.65;101353.63;4935593;28;20223;-80
2022/01/12 04:30:47;;;;;;;9.57;6.93;;;;;;;-5.17;84.47;101362.09;4957904;28;20192;-80
2022/01/12 04:33:13;;;;;;;8.80;6.03;;;;;;;-5.20;84.58;101355.19;4948778;28;20212;-80
2022/01/12 04:35:50;;;;;;;11.30;6.40;;;;;;;-5.17;84.59;101364.66;4946147;28;20220;-80
2022/01/12 04:38:17;;;;;;;9.30;5.80;;;;;;;-5.14;84.73;101375.84;4952728;28;20628;-80
2022/01/12 04:40:45;;;;;;;9.05;5.72;;;;;;;-5.09;84.40;101378.53;4950653;28;20282;-80
2022/01/12 04:43:11;;;;;;;10.13;6.40;;;;;;;-5.06;84.40;101373.50;4961331;28;20260;-80
2022/01/12 04:46:34;;;;;;;12.57;6.37;;;;;;;-5.02;84.22;101377.00;4954992;28;20702;-80
2022/01/12 04:50:55;;;;;;;8.88;5.50;;;;;;;-5.05;83.99;101384.63;4965944;28;20201;-80
2022/01/12 04:53:21;;;;;;;7.03;6.20;;;;;;;-5.04;84.04;101387.22;4949278;28;20204;-80
2022/01/12 04:55:48;;;;;;;8.30;6.13;;;;;;;-5.04;83.73;101376.97;4943820;28;20209;-80
2022/01/12 04:58:15;;;;;;;10.75;6.43;;;;;;;-5.04;83.68;101389.78;4942142;28;20542;-76
2022/01/12 05:00:42;;;;;;;6.85;5.00;;;;;;;-5.04;83.61;101394.06;4946329;28;21310;-76
2022/01/12 05:13:54;;;;;;;10.00;6.53;;;;;;;-5.05;83.36;101410.25;4964602;28;20244;-76
2022/01/12 05:16:21;;;;;;;14.10;5.88;;;;;;;-5.07;83.58;101402.53;4955026;28;20431;-77
2022/01/12 05:18:48;;;;;;;13.00;7.15;;;;;;;-5.10;83.26;101405.00;4962517;28;20291;-77
2022/01/12 05:21:16;;;;;;;14.05;8.73;;;;;;;-5.14;83.24;101418.53;4935732;29;20213;-77
2022/01/12 05:23:41;;;;;;;13.63;6.95;;;;;;;-5.16;83.58;101427.84;4949174;28;20228;-77
2022/01/12 05:26:07;;;;;;;15.17;7.43;;;;;;;-5.15;83.74;101435.59;4953091;28;20305;-78
2022/01/12 05:28:34;;;;;;;10.43;6.40;;;;;;;-5.12;83.60;101439.94;4938262;28;20212;-76
2022/01/12 05:31:01;;;;;;;11.07;7.72;;;;;;;-5.11;83.18;101442.53;4938361;28;20211;-76
2022/01/12 05:33:28;;;;;;;10.23;6.40;;;;;;;-5.09;83.91;101451.97;4935470;28;20303;-77
2022/01/12 05:35:57;;;;;;;9.77;7.20;;;;;;;-5.07;83.78;101468.28;4960250;28;20287;-77
2022/01/12 05:38:24;;;;;;;7.13;6.53;;;;;;;-5.05;83.02;101474.28;4955269;28;20216;-77
2022/01/12 05:40:53;;;;;;;9.45;6.90;;;;;;;-5.04;83.44;101458.13;4957107;28;20211;-77
2022/01/12 05:43:25;;;;;;;8.45;7.55;;;;;;;-5.04;83.56;101466.66;4939239;28;20196;-77
2022/01/12 05:45:53;;;;;;;11.13;7.10;;;;;;;-5.02;83.10;101461.56;4946337;28;20627;-77
2022/01/12 05:50:49;;;;;;;17.90;13.95;;;;;;;-5.01;83.13;101458.19;4957881;28;20196;-76
2022/01/12 05:53:18;;;;;;;19.20;11.00;;;;;;;-5.01;83.03;101458.19;4940730;28;20234;-76
2022/01/12 05:55:48;;;;;;;12.40;8.90;;;;;;;-5.00;83.57;101449.69;4938376;28;20633;-76
2022/01/12 05:58:14;;;;;;;11.20;10.03;;;;;;;-5.01;82.85;101450.50;4952518;28;20677;-77
2022/01/12 06:00:40;;;;;;;11.48;7.72;;;;;;;-5.01;82.53;101455.63;4948263;28;20581;-76
2022/01/12 06:03:06;;;;;;;23.60;14.15;;;;;;;-5.02;83.20;101464.13;4953878;28;20212;-76
2022/01/12 06:05:32;;;;;;;14.80;12.77;;;;;;;-5.05;82.67;101471.72;4958194;28;20241;-76
2022/01/12 06:07:58;;;;;;;16.88;10.18;;;;;;;-5.11;82.45;101478.41;4939159;28;20224;-76
2022/01/12 06:10:24;;;;;;;10.43;7.00;;;;;;;-5.13;83.31;101477.53;4940400;28;20267;-76
2022/01/12 06:12:51;;;;;;;12.75;7.50;;;;;;;-5.13;82.71;101474.94;4935692;28;20989;-76
2022/01/12 06:15:17;;;;;;;11.60;6.85;;;;;;;-5.10;83.26;101476.75;4937487;28;20624;-76
2022/01/12 06:17:43;;;;;;;9.73;7.38;;;;;;;-5.09;83.34;101480.16;4942902;28;20211;-76
2022/01/12 06:20:09;;;;;;;9.37;6.90;;;;;;;-5.08;82.48;101479.34;4941507;28;20196;-76
2022/01/12 06:22:55;;;;;;;14.25;9.13;;;;;;;-5.09;82.60;101480.16;4943679;28;20630;-77
2022/01/12 06:25:20;;;;;;;10.37;7.73;;;;;;;-5.12;82.74;101481.81;4934364;28;20239;-76
2022/01/12 06:27:56;;;;;;;11.47;8.70;;;;;;;-5.16;82.49;101477.44;4955551;28;20333;-76
2022/01/12 06:32:56;;;;;;;14.50;9.95;;;;;;;-5.16;82.69;101489.34;4953306;28;20347;-76
2022/01/12 06:35:22;;;;;;;16.35;8.30;;;;;;;-5.15;82.54;101491.97;4951620;28;20299;-76
2022/01/12 06:37:50;;;;;;;15.32;11.07;;;;;;;-5.12;82.48;101504.88;4937096;28;20205;-77
2022/01/12 06:40:17;;;;;;;14.57;10.27;;;;;;;-5.12;82.58;101504.88;4934292;28;20248;-76
2022/01/12 06:42:43;;;;;;;13.82;12.18;;;;;;;-5.10;82.57;101512.63;4943401;28;20231;-76
2022/01/12 06:45:09;;;;;;;18.40;11.47;;;;;;;-5.09;82.57;101516.03;4929872;28;20220;-76
2022/01/12 06:47:36;;;;;;;14.02;9.82;;;;;;;-5.11;82.39;101524.53;4935043;28;20204;-76
2022/01/12 06:50:02;;;;;;;19.90;10.55;;;;;;;-5.12;82.58;101525.34;4947976;28;20220;-76
2022/01/12 06:52:28;;;;;;;19.23;11.65;;;;;;;-5.12;82.23;101527.94;4955067;28;20215;-76
2022/01/12 06:54:54;;;;;;;13.90;11.63;;;;;;;-5.13;82.69;101528.75;4952594;28;20224;-77
2022/01/12 06:57:20;;;;;;;21.42;11.07;;;;;;;-5.12;82.59;101539.88;4950402;28;20227;-76
2022/01/12 06:59:45;;;;;;;17.03;13.20;;;;;;;-5.13;82.22;101533.88;4937744;28;20586;-77
2022/01/12 07:02:11;;;;;;;22.20;13.63;;;;;;;-5.16;81.81;101527.78;4942761;28;20223;-76
2022/01/12 07:04:38;;;;;;;18.13;12.35;;;;;;;-5.21;82.03;101527.66;4945453;28;20849;-76
2022/01/12 07:07:05;;;;;;;17.50;12.90;;;;;;;-5.27;82.50;101524.00;4946044;28;20308;-77
2022/01/12 07:09:31;;;;;;;15.47;13.00;;;;;;;-5.31;82.21;101530.72;4939234;28;20304;-76
2022/01/12 07:12:09;;;;;;;16.45;12.27;;;;;;;-5.34;82.73;101540.88;4946602;28;20248;-77
2022/01/12 07:14:37;;;;;;;13.82;9.60;;;;;;;-5.37;82.98;101538.22;4935863;28;20227;-77
2022/01/12 07:17:06;;;;;;;11.68;8.90;;;;;;;-5.35;82.52;101546.81;4933405;28;20207;-77
2022/01/12 07:19:31;;;;;;;10.63;8.15;;;;;;;-5.34;82.89;101549.44;4953096;28;20264;-77
2022/01/12 07:21:57;;;;;;;13.27;9.00;;;;;;;-5.28;82.64;101553.00;4971046;28;20204;-76
2022/01/12 07:24:22;;;;;;;11.33;8.83;;;;;;;-5.26;82.77;101547.13;4955331;28;20267;-76
2022/01/12 07:26:48;;;;;;;10.83;8.17;;;;;;;-5.28;82.40;101553.00;4953893;28;20236;-76
2022/01/12 07:29:13;;;;;;;10.83;7.17;;;;;;;-5.27;82.34;101544.50;4956218;28;20200;-77
2022/01/12 07:31:39;;;;;;;13.90;11.43;;;;;;;-5.20;82.74;101560.13;4951700;28;20528;-77
2022/01/12 07:34:04;;;;;;;12.20;10.07;;;;;;;-5.17;82.58;101570.47;4956510;28;20221;-77
2022/01/12 07:36:30;;;;;;;15.17;10.40;;;;;;;-5.14;82.35;101559.44;4957221;28;20224;-77
2022/01/12 07:38:59;;;;;;;15.70;9.50;;;;;;;-5.14;82.79;101568.00;4954414;28;20212;-77
2022/01/12 07:41:24;;;;;;;13.02;8.68;;;;;;;-5.12;82.48;101566.34;4956436;28;20303;-76
2022/01/12 07:43:50;;;;;;;39.40;25.87;;;;;;;-5.11;82.12;101562.97;4954963;28;20312;-77
2022/01/12 07:46:15;;;;;;;36.27;21.17;;;;;;;-5.08;82.10;101569.88;4952628;28;20229;-76
2022/01/12 07:48:40;;;;;;;23.37;15.07;;;;;;;-5.03;82.70;101575.16;4956412;28;20208;-76
2022/01/12 07:51:08;;;;;;;30.37;17.13;;;;;;;-4.99;81.90;101570.19;4949463;28;20240;-76
2022/01/12 07:53:33;;;;;;;31.42;18.40;;;;;;;-4.95;82.36;101571.13;4956743;28;20209;-77
2022/01/12 07:55:59;;;;;;;19.33;11.37;;;;;;;-4.93;81.67;101569.50;4965634;28;20209;-77
2022/01/12 07:58:25;;;;;;;18.87;14.60;;;;;;;-4.92;82.14;101577.22;4963869;28;20263;-77
2022/01/12 08:00:50;;;;;;;15.93;10.97;;;;;;;-4.88;82.13;101578.19;4960925;28;20208;-77
2022/01/12 08:03:15;;;;;;;13.83;10.77;;;;;;;-4.83;82.38;101578.31;4965837;28;20204;-77
2022/01/12 08:05:41;;;;;;;9.37;8.00;;;;;;;-4.81;81.91;101574.97;4954740;28;20644;-77
2022/01/12 08:08:06;;;;;;;20.60;9.10;;;;;;;-4.78;81.91;101571.63;4957937;28;20208;-76
2022/01/12 08:10:32;;;;;;;12.37;10.80;;;;;;;-4.74;82.02;101576.06;4953022;28;20208;-77
2022/01/12 08:12:57;;;;;;;15.17;10.93;;;;;;;-4.69;82.18;101583.06;4953254;28;20307;-77
2022/01/12 08:15:23;;;;;;;13.10;9.60;;;;;;;-4.64;81.76;101575.50;4969295;28;20220;-75
2022/01/12 08:17:48;;;;;;;14.77;10.90;;;;;;;-4.58;82.26;101577.38;4955059;28;20204;-77
2022/01/12 08:20:18;;;;;;;11.20;10.00;;;;;;;-4.50;81.75;101583.63;4950014;28;20668;-76
2022/01/12 08:22:43;;;;;;;15.30;9.15;;;;;;;-4.46;81.94;101599.13;4951757;28;20213;-77
2022/01/12 08:25:09;;;;;;;12.30;9.40;;;;;;;-4.44;81.97;101601.75;4947364;28;20270;-77
2022/01/12 08:27:36;;;;;;;13.63;8.50;;;;;;;-4.41;82.05;101596.69;4949362;28;20299;-77
2022/01/12 08:30:04;;;;;;;10.25;8.93;;;;;;;-4.35;82.27;101612.25;4952579;28;20213;-77
2022/01/12 08:32:30;;;;;;;12.32;9.10;;;;;;;-4.28;81.82;101624.44;4948492;28;20224;-77
2022/01/12 08:34:57;;;;;;;10.73;9.47;;;;;;;-4.19;81.63;101630.66;4949669;28;20749;-77
2022/01/12 08:37:22;;;;;;;16.20;9.88;;;;;;;-4.13;81.99;101618.91;4945965;28;20532;-77
2022/01/12 08:39:48;;;;;;;9.67;8.57;;;;;;;-4.06;81.39;101613.09;4946303;28;20300;-77
2022/01/12 08:42:13;;;;;;;9.73;7.80;;;;;;;-4.03;81.40;101615.75;4954534;28;20740;-77
2022/01/12 08:44:39;;;;;;;11.63;8.50;;;;;;;-3.99;81.48;101621.00;4955783;28;20993;-77
2022/01/12 08:47:05;;;;;;;11.10;8.90;;;;;;;-3.94;81.60;101620.28;4950407;28;20221;-77
2022/01/12 08:49:30;;;;;;;10.95;9.15;;;;;;;-3.87;81.44;101609.34;4953712;28;20283;-77
2022/01/12 08:51:56;;;;;;;12.83;9.67;;;;;;;-3.80;81.53;101608.69;4945765;28;20240;-77
2022/01/12 08:54:21;;;;;;;10.50;9.20;;;;;;;-3.28;81.69;101614.31;4945661;28;20558;-75
2022/01/12 08:56:47;;;;;;;13.07;10.27;;;;;;;-2.12;80.33;101604.94;4953283;28;20550;-76
2022/01/12 08:59:13;;;;;;;14.33;9.57;;;;;;;-0.70;77.08;101594.53;4952919;28;20205;-77
2022/01/12 09:01:39;;;;;;;13.02;9.25;;;;;;;0.79;73.40;101593.63;4950076;28;20479;-77
2022/01/12 09:04:05;;;;;;;11.30;7.47;;;;;;;2.13;69.40;101594.34;4953081;28;20248;-77
2022/01/12 09:06:30;;;;;;;8.70;6.70;;;;;;;3.03;66.77;101589.28;4954909;28;20488;-80
2022/01/12 09:08:56;;;;;;;10.90;9.50;;;;;;;3.91;63.67;101584.69;4963158;28;20208;-78
2022/01/12 09:11:21;;;;;;;9.43;8.53;;;;;;;4.81;61.48;101579.81;4958219;28;20260;-79
2022/01/12 09:13:47;;;;;;;10.83;9.83;;;;;;;5.64;58.92;101581.59;4960126;28;20251;-79
2022/01/12 09:16:13;;;;;;;10.63;8.60;;;;;;;6.35;57.23;101576.38;4962553;28;20204;-78
2022/01/12 09:18:40;;;;;;;18.60;10.65;;;;;;;6.77;55.95;101590.50;4942300;28;20212;-77
2022/01/12 09:21:06;;;;;;;14.65;9.25;;;;;;;7.13;54.14;101582.94;4952497;28;20615;-77
2022/01/12 09:23:33;;;;;;;14.10;9.70;;;;;;;7.53;53.71;101576.94;4952413;28;20800;-79
2022/01/12 09:25:58;;;;;;;18.70;14.43;;;;;;;7.81;52.81;101590.34;4954074;28;20574;-78
2022/01/12 09:28:24;;;;;;;18.87;15.07;;;;;;;7.49;52.38;101588.38;4952922;28;20292;-78
2022/01/12 09:30:51;;;;;;;12.07;9.30;;;;;;;7.03;52.77;101581.38;4962784;28;20259;-77
2022/01/12 09:33:17;;;;;;;16.60;12.82;;;;;;;6.35;54.41;101595.50;4956165;28;20215;-77
2022/01/12 09:35:43;;;;;;;12.60;11.30;;;;;;;5.61;56.36;101607.69;4951704;28;20232;-78
2022/01/12 09:38:09;;;;;;;14.27;11.18;;;;;;;4.72;57.73;101603.31;4956209;28;20200;-76
2022/01/12 09:40:34;;;;;;;13.33;11.33;;;;;;;4.03;58.79;101624.56;4959586;28;20387;-76
2022/01/12 09:43:04;;;;;;;13.70;10.83;;;;;;;3.08;60.57;101634.28;4954969;28;20226;-77
2022/01/12 09:45:31;;;;;;;10.32;7.60;;;;;;;2.22;62.64;101638.47;4955911;28;20232;-78
2022/01/12 09:47:56;;;;;;;12.45;7.43;;;;;;;1.56;64.77;101651.09;4958817;28;20205;-77
2022/01/12 09:50:23;;;;;;;9.47;8.37;;;;;;;1.14;66.12;101662.06;4954494;28;20203;-78
2022/01/12 09:52:49;;;;;;;10.02;8.02;;;;;;;0.89;66.74;101664.41;4959961;28;20662;-78
2022/01/12 09:55:15;;;;;;;8.88;7.30;;;;;;;0.78;67.33;101664.28;4965870;28;20271;-78
2022/01/12 09:57:41;;;;;;;8.77;7.03;;;;;;;1.07;66.80;101674.06;4962119;28;20242;-77
2022/01/12 10:00:07;;;;;;;9.97;6.80;;;;;;;1.55;65.25;101665.78;4960052;28;20204;-78
2022/01/12 10:02:41;;;;;;;9.20;7.57;;;;;;;2.41;63.28;101652.38;4962230;28;20213;-77
2022/01/12 10:05:09;;;;;;;11.73;7.90;;;;;;;3.51;60.06;101648.94;4965468;28;20259;-78
2022/01/12 10:07:34;;;;;;;10.30;9.23;;;;;;;4.09;58.42;101651.38;4967435;28;20216;-79
2022/01/12 10:10:06;;;;;;;10.10;8.07;;;;;;;4.40;57.54;101652.09;4967745;28;20883;-80
2022/01/12 10:12:32;;;;;;;13.90;9.23;;;;;;;4.75;56.40;101647.53;4973794;28;20541;-80
2022/01/12 10:15:01;;;;;;;11.20;8.90;;;;;;;4.57;56.60;101662.41;4957956;28;20216;-79
2022/01/12 10:17:46;;;;;;;12.68;8.93;;;;;;;4.37;57.64;101653.84;4967811;28;20208;-80
2022/01/12 10:20:38;;;;;;;10.25;7.97;;;;;;;4.35;57.69;101661.66;4963433;28;20219;-80
2022/01/12 10:23:08;;;;;;;10.23;8.27;;;;;;;4.17;58.32;101665.22;4966574;28;20232;-80
2022/01/12 10:25:35;;;;;;;16.58;8.25;;;;;;;3.75;59.06;101656.72;4968481;28;20598;-79
2022/01/12 10:28:15;;;;;;;11.80;8.50;;;;;;;3.15;61.11;101655.06;4946203;28;20213;-80
2022/01/12 10:31:01;;;;;;;13.10;10.27;;;;;;;2.54;62.51;101650.66;4972911;28;20420;-80
2022/01/12 10:33:29;;;;;;;11.82;8.77;;;;;;;1.99;64.15;101653.94;4976066;28;20208;-79
2022/01/12 10:35:58;;;;;;;13.98;10.32;;;;;;;1.55;65.65;101645.06;4965662;28;20204;-82
2022/01/12 10:38:24;;;;;;;8.73;7.72;;;;;;;1.27;66.66;101649.22;4970416;28;20208;-79
2022/01/12 10:40:53;;;;;;;14.75;10.38;;;;;;;1.07;67.51;101656.81;4972715;28;20204;-79
2022/01/12 10:43:26;;;;;;;11.85;9.85;;;;;;;0.88;68.04;101649.75;4972402;28;20208;-79
2022/01/12 10:45:51;;;;;;;17.55;10.40;;;;;;;0.71;69.05;101651.31;4970665;28;20220;-79
2022/01/12 10:48:17;;;;;;;14.50;10.73;;;;;;;0.56;69.34;101641.66;4975729;28;20384;-79
2022/01/12 10:50:55;;;;;;;13.87;10.60;;;;;;;0.41;70.60;101638.09;4970435;28;20843;-79
2022/01/12 10:53:27;;;;;;;12.95;9.45;;;;;;;0.30;70.80;101636.22;4975519;28;20534;-79
2022/01/12 10:56:11;;;;;;;14.45;10.40;;;;;;;0.18;71.56;101637.81;4973249;28;20200;-79
2022/01/12 10:58:40;;;;;;;18.20;11.07;;;;;;;0.09;72.38;101631.69;4972110;28;20205;-80
2022/01/12 11:01:06;;;;;;;11.43;9.82;;;;;;;0.01;72.56;101649.69;4972784;28;20200;-80
2022/01/12 11:03:31;;;;;;;14.70;11.40;;;;;;;-0.08;73.41;101653.03;4974580;28;20208;-80
2022/01/12 11:05:58;;;;;;;12.13;8.87;;;;;;;-0.15;73.26;101645.16;4971326;28;20515;-80
2022/01/12 11:08:25;;;;;;;9.90;8.40;;;;;;;-0.17;73.38;101644.28;4972116;28;20211;-80
2022/01/12 11:10:52;;;;;;;10.05;8.68;;;;;;;-0.15;73.32;101655.50;4970884;28;20255;-80
2022/01/12 11:13:18;;;;;;;12.38;9.45;;;;;;;-0.20;73.60;101657.16;4971976;28;20251;-80
2022/01/12 11:15:44;;;;;;;11.37;9.50;;;;;;;-0.17;74.00;101652.03;4978948;28;20252;-80
2022/01/12 11:18:10;;;;;;;9.90;8.13;;;;;;;-0.12;73.86;101655.53;4973140;28;20200;-80
2022/01/12 11:20:40;;;;;;;11.40;10.05;;;;;;;-0.12;74.53;101651.22;4972198;28;20957;-80
2022/01/12 11:23:13;;;;;;;14.32;10.10;;;;;;;-0.13;74.74;101653.81;4972445;28;20700;-80
2022/01/12 11:25:45;;;;;;;11.25;8.25;;;;;;;-0.13;74.39;101648.66;4973102;28;20247;-80
2022/01/12 11:28:15;;;;;;;11.25;8.27;;;;;;;-0.11;74.38;101639.19;4972474;28;20219;-80
2022/01/12 11:30:45;;;;;;;12.10;8.55;;;;;;;-0.10;74.61;101641.78;4971451;28;20407;-80
2022/01/12 11:33:12;;;;;;;10.95;8.80;;;;;;;-0.10;74.61;101641.78;4971975;28;20212;-80
2022/01/12 11:35:59;;;;;;;12.52;10.05;;;;;;;-0.05;74.63;101647.03;4988465;28;20618;-80
2022/01/12 11:38:27;;;;;;;11.60;8.52;;;;;;;-0.06;74.98;101637.53;4974686;28;20220;-80
2022/01/12 11:40:55;;;;;;;18.75;11.13;;;;;;;-0.04;74.86;101638.41;4975746;28;20209;-80
2022/01/12 11:43:27;;;;;;;10.27;7.72;;;;;;;-0.02;74.50;101636.72;4973400;28;20205;-81
2022/01/12 11:46:24;;;;;;;11.25;8.63;;;;;;;0.02;74.57;101633.31;4975248;28;20239;-81
2022/01/12 11:48:59;;;;;;;11.60;8.98;;;;;;;0.04;74.65;101623.03;4976214;28;20448;-81
2022/01/12 11:51:41;;;;;;;11.23;9.23;;;;;;;0.07;74.65;101620.47;4968092;28;20215;-82
2022/01/12 11:54:12;;;;;;;11.25;8.80;;;;;;;0.10;74.69;101616.19;4965820;28;20229;-81
2022/01/12 11:56:50;;;;;;;11.80;7.90;;;;;;;0.10;74.66;101605.84;4945996;28;20204;-80
2022/01/12 11:59:15;;;;;;;11.02;8.60;;;;;;;0.14;75.06;101596.44;4961279;28;20208;-80
2022/01/12 12:01:48;;;;;;;12.67;9.87;;;;;;;0.19;75.01;101605.13;4969682;28;20264;-81
2022/01/12 12:04:31;;;;;;;12.80;9.77;;;;;;;0.26;75.52;101603.44;4970176;28;20271;-81
2022/01/12 12:07:04;;;;;;;12.25;9.50;;;;;;;0.33;75.46;101597.50;4967205;28;20428;-80
2022/01/12 12:09:53;;;;;;;14.10;11.63;;;;;;;0.41;75.82;101591.56;4965229;28;20267;-80
2022/01/12 12:12:29;;;;;;;14.13;10.15;;;;;;;0.46;76.44;101591.59;4962276;28;20258;-79
2022/01/12 12:14:57;;;;;;;15.75;12.15;;;;;;;0.55;76.35;101599.44;4959059;28;20229;-80
2022/01/12 12:17:25;;;;;;;16.85;10.20;;;;;;;0.61;76.40;101593.47;4960556;28;20268;-80
2022/01/12 12:19:52;;;;;;;14.63;9.57;;;;;;;0.68;76.17;101584.91;4967437;28;20274;-80
2022/01/12 12:22:29;;;;;;;9.73;7.30;;;;;;;0.76;75.89;101572.03;4960012;28;20205;-80
2022/01/12 12:24:58;;;;;;;9.48;6.20;;;;;;;0.83;75.20;101568.63;4962871;28;20262;-80
2022/01/12 12:27:26;;;;;;;10.10;6.50;;;;;;;0.90;74.53;101561.81;4961588;28;20260;-80
2022/01/12 12:29:52;;;;;;;7.80;5.80;;;;;;;0.96;73.62;101552.34;4963623;28;20211;-80
2022/01/12 12:32:19;;;;;;;10.45;8.77;;;;;;;1.13;73.10;101549.00;4960350;28;20490;-80
2022/01/12 12:34:46;;;;;;;8.63;6.53;;;;;;;1.22;72.72;101543.91;4964106;28;20633;-81
2022/01/12 12:37:15;;;;;;;10.35;7.10;;;;;;;1.29;72.09;101543.06;4970002;28;20275;-82
2022/01/12 12:39:44;;;;;;;11.23;6.93;;;;;;;1.33;71.64;101539.66;4967532;28;20274;-82
2022/01/12 12:42:20;;;;;;;9.10;7.43;;;;;;;1.36;71.13;101525.84;4963651;28;20209;-82